createdAt,value
2023-05-02T00:03:09.426Z,11.87
2023-05-02T00:08:33.548Z,12.02
2023-05-02T00:13:57.753Z,12.25
2023-05-02T00:19:22.794Z,12.44
2023-05-02T00:24:47.651Z,12.53
2023-05-02T00:30:12.756Z,12.62
2023-05-02T00:35:37.163Z,12.67
2023-05-02T00:41:01.390Z,12.70
2023-05-02T00:46:25.921Z,12.72
2023-05-02T00:51:50.752Z,12.79
2023-05-02T00:57:16.151Z,12.81
2023-05-02T01:02:51.884Z,12.82
2023-05-02T01:08:29.316Z,12.80
2023-05-02T01:13:55.254Z,12.74
2023-05-02T01:19:29.891Z,12.69
2023-05-02T01:25:06.399Z,12.64
2023-05-02T01:30:34.460Z,12.55
2023-05-02T01:36:02.473Z,12.40
2023-05-02T01:41:28.370Z,12.29
2023-05-02T01:46:55.311Z,12.19
2023-05-02T01:52:23.331Z,12.11
2023-05-02T01:57:51.236Z,12.08
2023-05-02T02:03:18.501Z,12.10
2023-05-02T02:08:43.564Z,12.10
2023-05-02T02:14:12.848Z,12.05
2023-05-02T02:19:39.892Z,11.99
2023-05-02T02:25:11.880Z,11.98
2023-05-02T02:30:37.127Z,11.96
2023-05-02T02:36:11.857Z,11.92
2023-05-02T02:41:49.174Z,11.84
2023-05-02T02:47:27.852Z,11.74
2023-05-02T02:53:01.058Z,11.61
2023-05-02T02:58:52.418Z,11.55
2023-05-02T03:04:19.314Z,11.49
2023-05-02T03:09:48.353Z,11.45
2023-05-02T03:15:30.697Z,11.38
2023-05-02T03:20:55.958Z,11.31
2023-05-02T03:26:20.150Z,11.32
2023-05-02T03:31:46.454Z,11.34
2023-05-02T03:37:12.262Z,11.35
2023-05-02T03:42:40.437Z,11.34
2023-05-02T03:48:06.897Z,11.31
2023-05-02T03:53:32.325Z,11.32
2023-05-02T03:58:57.262Z,11.34
2023-05-02T04:04:21.796Z,11.39
2023-05-02T04:09:48.766Z,11.42
2023-05-02T04:15:14.657Z,11.44
2023-05-02T04:20:40.409Z,11.48
2023-05-02T04:26:04.846Z,11.55
2023-05-02T04:31:35.550Z,11.60
2023-05-02T04:37:01.715Z,11.64
2023-05-02T04:42:27.947Z,11.69
2023-05-02T04:48:12.960Z,11.79
2023-05-02T04:53:38.797Z,11.87
2023-05-02T04:59:03.374Z,11.91
2023-05-02T05:04:28.460Z,11.96
2023-05-02T05:09:57.007Z,12.03
2023-05-02T05:15:26.347Z,12.11
2023-05-02T05:20:55.148Z,12.19
2023-05-02T05:26:20.093Z,12.31
2023-05-02T05:31:45.908Z,12.43
2023-05-02T05:37:12.518Z,12.53
2023-05-02T05:42:38.013Z,12.61
2023-05-02T05:48:08.040Z,12.70
2023-05-02T05:53:38.580Z,12.81
2023-05-02T05:59:05.884Z,12.90
2023-05-02T06:04:30.706Z,12.98
2023-05-02T06:09:55.220Z,13.09
2023-05-02T06:15:19.503Z,13.19
2023-05-02T06:20:44.055Z,13.33
2023-05-02T06:26:08.794Z,13.43
2023-05-02T06:31:33.745Z,13.49
2023-05-02T06:36:57.849Z,13.60
2023-05-02T06:42:22.398Z,13.71
2023-05-02T06:47:46.953Z,13.81
2023-05-02T06:53:12.175Z,13.96
2023-05-02T06:58:36.900Z,14.12
2023-05-02T07:04:04.808Z,14.27
2023-05-02T07:09:29.268Z,14.35
2023-05-02T07:14:53.401Z,14.49
2023-05-02T07:20:17.912Z,14.68
2023-05-02T07:25:42.353Z,14.91
2023-05-02T07:31:06.717Z,15.03
2023-05-02T07:36:31.805Z,15.28
2023-05-02T07:41:56.306Z,15.48
2023-05-02T07:47:21.066Z,15.65
2023-05-02T07:52:45.383Z,15.73
2023-05-02T07:58:09.829Z,15.71
2023-05-02T08:03:34.553Z,15.84
2023-05-02T08:09:02.407Z,15.96
2023-05-02T08:14:26.835Z,16.17
2023-05-02T08:19:51.587Z,16.32
2023-05-02T08:25:15.709Z,16.47
2023-05-02T08:30:40.154Z,16.68
2023-05-02T08:36:15.487Z,16.91
2023-05-02T08:41:41.091Z,17.08
2023-05-02T08:47:07.271Z,17.30
2023-05-02T08:52:34.152Z,17.47
2023-05-02T08:57:59.039Z,17.62
2023-05-02T09:03:36.932Z,17.55
2023-05-02T09:09:05.064Z,17.49
2023-05-02T09:14:30.142Z,17.55
2023-05-02T09:20:01.742Z,17.54
2023-05-02T09:25:26.168Z,17.58
2023-05-02T09:30:51.106Z,17.68
2023-05-02T09:36:21.121Z,17.87
2023-05-02T09:41:48.532Z,18.12
2023-05-02T09:47:25.850Z,18.21
2023-05-02T09:53:11.581Z,18.18
2023-05-02T09:58:36.532Z,18.25
2023-05-02T10:04:01.160Z,18.39
2023-05-02T10:09:26.481Z,18.62
2023-05-02T10:14:58.613Z,19.04
2023-05-02T10:20:36.001Z,19.47
2023-05-02T10:26:00.649Z,19.58
2023-05-02T10:31:25.536Z,19.48
2023-05-02T10:36:50.364Z,19.52
2023-05-02T10:42:15.293Z,19.59
2023-05-02T10:47:41.162Z,19.47
2023-05-02T10:53:25.238Z,19.33
2023-05-02T10:58:51.458Z,19.28
2023-05-02T11:04:15.699Z,19.38
2023-05-02T11:09:40.553Z,19.36
2023-05-02T11:15:09.063Z,19.70
2023-05-02T11:20:36.046Z,19.82
2023-05-02T11:26:01.433Z,19.71
2023-05-02T11:31:28.489Z,19.67
2023-05-02T11:36:53.139Z,19.76
2023-05-02T11:42:30.666Z,19.65
2023-05-02T11:47:58.418Z,19.52
2023-05-02T11:53:30.034Z,19.30
2023-05-02T11:59:03.515Z,19.16
2023-05-02T12:04:28.526Z,18.92
2023-05-02T12:09:54.211Z,18.84
2023-05-02T12:15:19.129Z,18.94
2023-05-02T12:20:44.221Z,18.84
2023-05-02T12:26:22.767Z,18.68
2023-05-02T12:31:54.344Z,18.60
2023-05-02T12:37:24.646Z,18.59
2023-05-02T12:43:04.481Z,18.77
2023-05-02T12:48:28.896Z,19.05
2023-05-02T12:53:54.181Z,19.27
2023-05-02T12:59:32.914Z,19.33
2023-05-02T13:04:57.981Z,19.55
2023-05-02T13:10:23.459Z,19.70
2023-05-02T13:15:48.121Z,19.74
2023-05-02T13:21:12.956Z,19.88
2023-05-02T13:26:37.832Z,20.27
2023-05-02T13:32:02.464Z,20.37
2023-05-02T13:37:27.549Z,20.12
2023-05-02T13:42:51.556Z,19.89
2023-05-02T13:48:16.404Z,19.64
2023-05-02T13:53:41.120Z,19.24
2023-05-02T13:59:07.348Z,18.72
2023-05-02T14:04:34.324Z,18.41
2023-05-02T14:10:00.662Z,18.06
2023-05-02T14:15:27.258Z,17.85
2023-05-02T14:20:52.175Z,17.80
2023-05-02T14:26:16.986Z,17.95
2023-05-02T14:31:41.512Z,18.22
2023-05-02T14:37:06.638Z,18.35
2023-05-02T14:42:31.185Z,18.38
2023-05-02T14:47:56.407Z,18.44
2023-05-02T14:53:21.938Z,18.37
2023-05-02T14:58:46.977Z,18.27
2023-05-02T15:04:12.978Z,18.32
2023-05-02T15:09:38.351Z,18.31
2023-05-02T15:15:03.643Z,18.19
2023-05-02T15:20:27.947Z,18.10
2023-05-02T15:25:52.089Z,17.92
2023-05-02T15:31:16.323Z,17.83
2023-05-02T15:36:41.001Z,17.74
2023-05-02T15:42:06.547Z,17.68
2023-05-02T15:47:31.282Z,17.64
2023-05-02T15:52:56.192Z,17.70
2023-05-02T15:58:20.465Z,17.70
2023-05-02T16:03:45.719Z,17.61
2023-05-02T16:09:11.098Z,17.59
2023-05-02T16:14:36.007Z,17.53
2023-05-02T16:20:01.251Z,17.48
2023-05-02T16:25:25.512Z,17.58
2023-05-02T16:30:49.860Z,17.70
2023-05-02T16:36:15.149Z,17.56
2023-05-02T16:41:39.809Z,17.34
2023-05-02T16:47:04.604Z,17.10
2023-05-02T16:52:29.747Z,16.79
2023-05-02T16:57:54.228Z,16.50
2023-05-02T17:03:18.216Z,16.18
2023-05-02T17:08:42.567Z,15.83
2023-05-02T17:14:06.799Z,15.52
2023-05-02T17:19:31.890Z,15.31
2023-05-02T17:24:56.873Z,15.02
2023-05-02T17:30:21.756Z,14.81
2023-05-02T17:35:46.027Z,14.68
2023-05-02T17:41:10.268Z,14.50
2023-05-02T17:46:34.437Z,14.37
2023-05-02T17:51:59.088Z,14.25
2023-05-02T17:57:23.566Z,14.16
2023-05-02T18:02:48.203Z,14.11
2023-05-02T18:08:12.644Z,14.02
2023-05-02T18:13:37.823Z,13.88
2023-05-02T18:19:02.500Z,13.82
2023-05-02T18:24:39.575Z,13.69
2023-05-02T18:30:05.105Z,13.60
2023-05-02T18:35:29.422Z,13.44
2023-05-02T18:40:53.909Z,13.26
2023-05-02T18:46:18.206Z,13.28
2023-05-02T18:51:43.578Z,13.32
2023-05-02T18:57:08.312Z,13.23
2023-05-02T19:02:33.466Z,13.14
2023-05-02T19:07:58.168Z,13.09
2023-05-02T19:13:22.805Z,13.07
2023-05-02T19:18:47.298Z,12.96
2023-05-02T19:24:11.745Z,12.86
2023-05-02T19:29:36.229Z,12.80
2023-05-02T19:35:02.106Z,12.78
2023-05-02T19:40:29.170Z,12.83
2023-05-02T19:45:55.266Z,12.86
2023-05-02T19:51:25.963Z,12.84
2023-05-02T19:56:52.030Z,12.77
2023-05-02T20:02:22.397Z,12.74
2023-05-02T20:07:47.860Z,12.62
2023-05-02T20:13:12.398Z,12.51
2023-05-02T20:18:36.596Z,12.42
2023-05-02T20:24:00.737Z,12.28
2023-05-02T20:29:25.698Z,12.12
2023-05-02T20:34:50.080Z,12.05
2023-05-02T20:40:15.027Z,11.95
2023-05-02T20:45:40.270Z,11.75
2023-05-02T20:51:04.497Z,11.60
2023-05-02T20:56:28.274Z,11.48
2023-05-02T21:01:52.376Z,11.32
2023-05-02T21:07:17.150Z,11.15
2023-05-02T21:12:41.420Z,10.94
2023-05-02T21:18:06.388Z,10.68
2023-05-02T21:23:30.485Z,10.43
2023-05-02T21:28:55.029Z,10.28
2023-05-02T21:34:19.890Z,10.20
2023-05-02T21:39:44.338Z,10.08
2023-05-02T21:45:09.536Z,10.08
2023-05-02T21:50:34.303Z,9.99
2023-05-02T21:55:58.244Z,9.93
2023-05-02T22:07:39.663Z,9.89
2023-05-02T22:13:04.852Z,9.94
2023-05-02T22:18:29.317Z,9.89
2023-05-02T22:23:53.742Z,9.87
2023-05-02T22:29:17.849Z,9.95
2023-05-02T22:34:41.664Z,9.99
2023-05-02T22:40:08.754Z,10.01
2023-05-02T22:45:34.178Z,9.85
2023-05-02T22:50:58.655Z,9.59
2023-05-02T22:56:22.782Z,9.39
2023-05-02T23:01:46.893Z,9.29
2023-05-02T23:07:11.372Z,9.25
2023-05-02T23:12:35.780Z,9.20
2023-05-02T23:18:00.691Z,9.11
2023-05-02T23:23:24.746Z,9.02
2023-05-02T23:28:48.845Z,8.97
2023-05-02T23:34:12.908Z,8.96
2023-05-02T23:39:37.121Z,8.90
2023-05-02T23:45:01.561Z,8.73
2023-05-02T23:50:26.044Z,8.51
2023-05-02T23:55:50.627Z,8.40
